sensor_id;sensor_type;location;lat;lon;timestamp;temperature;humidity
19132;DHT22;9698;51.976;7.570;2023-05-23T00:00:23;17.70;99.90
19132;DHT22;9698;51.976;7.570;2023-05-23T00:02:51;17.70;99.90
19132;DHT22;9698;51.976;7.570;2023-05-23T00:05:20;17.40;99.90
19132;DHT22;9698;51.976;7.570;2023-05-23T00:07:48;17.40;99.90
19132;DHT22;9698;51.976;7.570;2023-05-23T00:13:04;17.00;99.90
19132;DHT22;9698;51.976;7.570;2023-05-23T00:15:35;17.10;99.90
19132;DHT22;9698;51.976;7.570;2023-05-23T00:18:04;17.00;99.90
19132;DHT22;9698;51.976;7.570;2023-05-23T00:20:36;17.20;99.90
19132;DHT22;9698;51.976;7.570;2023-05-23T00:23:04;17.10;99.90
19132;DHT22;9698;51.976;7.570;2023-05-23T00:25:32;17.10;99.90
19132;DHT22;9698;51.976;7.570;2023-05-23T00:28:00;17.00;99.90
19132;DHT22;9698;51.976;7.570;2023-05-23T00:30:30;19.20;99.90
19132;DHT22;9698;51.976;7.570;2023-05-23T00:32:58;17.00;99.90
19132;DHT22;9698;51.976;7.570;2023-05-23T00:35:26;17.00;99.90
19132;DHT22;9698;51.976;7.570;2023-05-23T00:37:54;17.10;99.90
19132;DHT22;9698;51.976;7.570;2023-05-23T00:40:23;17.10;99.90
19132;DHT22;9698;51.976;7.570;2023-05-23T00:42:51;17.20;99.90
19132;DHT22;9698;51.976;7.570;2023-05-23T00:45:19;17.20;99.90
19132;DHT22;9698;51.976;7.570;2023-05-23T00:47:47;17.10;99.90
19132;DHT22;9698;51.976;7.570;2023-05-23T00:50:15;17.10;99.90
19132;DHT22;9698;51.976;7.570;2023-05-23T00:55:32;17.00;99.90
19132;DHT22;9698;51.976;7.570;2023-05-23T00:58:00;17.10;99.90
19132;DHT22;9698;51.976;7.570;2023-05-23T01:00:28;17.00;99.90
19132;DHT22;9698;51.976;7.570;2023-05-23T01:02:56;17.10;99.90
19132;DHT22;9698;51.976;7.570;2023-05-23T01:05:25;17.00;99.90
19132;DHT22;9698;51.976;7.570;2023-05-23T01:10:43;17.10;99.90
19132;DHT22;9698;51.976;7.570;2023-05-23T01:16:04;17.10;99.90
19132;DHT22;9698;51.976;7.570;2023-05-23T01:18:38;17.10;99.90
19132;DHT22;9698;51.976;7.570;2023-05-23T01:21:11;17.10;99.90
19132;DHT22;9698;51.976;7.570;2023-05-23T01:24:01;17.10;99.90
19132;DHT22;9698;51.976;7.570;2023-05-23T01:26:45;17.10;99.90
19132;DHT22;9698;51.976;7.570;2023-05-23T01:29:23;17.10;99.90
19132;DHT22;9698;51.976;7.570;2023-05-23T01:31:53;17.10;99.90
19132;DHT22;9698;51.976;7.570;2023-05-23T01:34:22;17.10;99.90
19132;DHT22;9698;51.976;7.570;2023-05-23T01:36:53;16.90;99.90
19132;DHT22;9698;51.976;7.570;2023-05-23T01:42:09;17.00;99.90
19132;DHT22;9698;51.976;7.570;2023-05-23T01:44:37;17.10;99.90
19132;DHT22;9698;51.976;7.570;2023-05-23T01:47:08;17.10;99.90
19132;DHT22;9698;51.976;7.570;2023-05-23T01:49:37;17.10;99.90
19132;DHT22;9698;51.976;7.570;2023-05-23T01:52:06;17.10;99.90
19132;DHT22;9698;51.976;7.570;2023-05-23T01:54:37;17.00;99.90
19132;DHT22;9698;51.976;7.570;2023-05-23T01:57:06;16.90;99.90
19132;DHT22;9698;51.976;7.570;2023-05-23T01:59:34;16.90;99.90
19132;DHT22;9698;51.976;7.570;2023-05-23T02:02:01;16.90;99.90
19132;DHT22;9698;51.976;7.570;2023-05-23T02:04:30;16.90;99.90
19132;DHT22;9698;51.976;7.570;2023-05-23T02:06:58;16.90;99.90
19132;DHT22;9698;51.976;7.570;2023-05-23T02:09:26;17.00;99.90
19132;DHT22;9698;51.976;7.570;2023-05-23T02:11:54;17.00;99.90
19132;DHT22;9698;51.976;7.570;2023-05-23T02:14:22;17.10;99.90
19132;DHT22;9698;51.976;7.570;2023-05-23T02:16:50;17.10;99.90
19132;DHT22;9698;51.976;7.570;2023-05-23T02:19:20;17.10;99.90
19132;DHT22;9698;51.976;7.570;2023-05-23T02:21:47;17.00;99.90
19132;DHT22;9698;51.976;7.570;2023-05-23T02:24:15;16.80;99.90
19132;DHT22;9698;51.976;7.570;2023-05-23T02:26:43;16.80;99.90
19132;DHT22;9698;51.976;7.570;2023-05-23T02:29:11;16.50;99.90
19132;DHT22;9698;51.976;7.570;2023-05-23T02:31:39;16.90;99.90
19132;DHT22;9698;51.976;7.570;2023-05-23T02:34:07;16.90;99.90
19132;DHT22;9698;51.976;7.570;2023-05-23T02:36:35;16.90;99.90
19132;DHT22;9698;51.976;7.570;2023-05-23T02:39:04;16.80;99.90
19132;DHT22;9698;51.976;7.570;2023-05-23T02:41:31;16.70;99.90
19132;DHT22;9698;51.976;7.570;2023-05-23T02:43:59;16.70;99.90
19132;DHT22;9698;51.976;7.570;2023-05-23T02:46:27;16.70;99.90
19132;DHT22;9698;51.976;7.570;2023-05-23T02:48:55;16.70;99.90
19132;DHT22;9698;51.976;7.570;2023-05-23T02:54:08;16.70;99.90
19132;DHT22;9698;51.976;7.570;2023-05-23T02:56:36;16.60;99.90
19132;DHT22;9698;51.976;7.570;2023-05-23T02:59:04;16.60;99.90
19132;DHT22;9698;51.976;7.570;2023-05-23T03:01:32;16.50;99.90
19132;DHT22;9698;51.976;7.570;2023-05-23T03:04:01;16.60;99.90
19132;DHT22;9698;51.976;7.570;2023-05-23T03:06:29;16.50;99.90
19132;DHT22;9698;51.976;7.570;2023-05-23T03:09:00;16.40;99.90
19132;DHT22;9698;51.976;7.570;2023-05-23T03:11:28;16.50;99.90
19132;DHT22;9698;51.976;7.570;2023-05-23T03:13:56;16.50;99.90
19132;DHT22;9698;51.976;7.570;2023-05-23T03:16:24;16.50;99.90
19132;DHT22;9698;51.976;7.570;2023-05-23T03:18:52;16.40;99.90
19132;DHT22;9698;51.976;7.570;2023-05-23T03:21:19;16.50;99.90
19132;DHT22;9698;51.976;7.570;2023-05-23T03:23:47;16.50;99.90
19132;DHT22;9698;51.976;7.570;2023-05-23T03:26:16;16.40;99.90
19132;DHT22;9698;51.976;7.570;2023-05-23T03:28:44;16.40;99.90
19132;DHT22;9698;51.976;7.570;2023-05-23T03:31:12;16.40;99.90
19132;DHT22;9698;51.976;7.570;2023-05-23T03:33:39;16.40;99.90
19132;DHT22;9698;51.976;7.570;2023-05-23T03:36:07;16.60;99.90
19132;DHT22;9698;51.976;7.570;2023-05-23T03:38:35;16.40;99.90
19132;DHT22;9698;51.976;7.570;2023-05-23T03:41:03;16.50;99.90
19132;DHT22;9698;51.976;7.570;2023-05-23T03:43:31;16.40;99.90
19132;DHT22;9698;51.976;7.570;2023-05-23T03:45:59;16.40;99.90
19132;DHT22;9698;51.976;7.570;2023-05-23T03:48:27;16.30;99.90
19132;DHT22;9698;51.976;7.570;2023-05-23T03:50:56;16.30;99.90
19132;DHT22;9698;51.976;7.570;2023-05-23T03:56:11;16.30;99.90
19132;DHT22;9698;51.976;7.570;2023-05-23T03:58:39;16.40;99.90
19132;DHT22;9698;51.976;7.570;2023-05-23T04:01:07;16.30;99.90
19132;DHT22;9698;51.976;7.570;2023-05-23T04:03:35;16.40;99.90
19132;DHT22;9698;51.976;7.570;2023-05-23T04:08:52;16.30;99.90
19132;DHT22;9698;51.976;7.570;2023-05-23T04:11:20;16.30;99.90
19132;DHT22;9698;51.976;7.570;2023-05-23T04:13:49;15.80;99.90
19132;DHT22;9698;51.976;7.570;2023-05-23T04:16:18;16.20;99.90
19132;DHT22;9698;51.976;7.570;2023-05-23T04:18:46;16.10;99.90
19132;DHT22;9698;51.976;7.570;2023-05-23T04:21:14;16.00;99.90
19132;DHT22;9698;51.976;7.570;2023-05-23T04:23:42;16.00;99.90
19132;DHT22;9698;51.976;7.570;2023-05-23T04:26:10;15.90;99.90
19132;DHT22;9698;51.976;7.570;2023-05-23T04:28:39;16.00;99.90
19132;DHT22;9698;51.976;7.570;2023-05-23T04:31:07;15.90;99.90
19132;DHT22;9698;51.976;7.570;2023-05-23T04:33:35;15.90;99.90
19132;DHT22;9698;51.976;7.570;2023-05-23T04:36:04;15.90;99.90
19132;DHT22;9698;51.976;7.570;2023-05-23T04:38:35;16.00;99.90
19132;DHT22;9698;51.976;7.570;2023-05-23T04:41:05;15.90;99.90
19132;DHT22;9698;51.976;7.570;2023-05-23T04:43:33;16.00;99.90
19132;DHT22;9698;51.976;7.570;2023-05-23T04:46:03;15.90;99.90
19132;DHT22;9698;51.976;7.570;2023-05-23T04:48:31;15.80;99.90
19132;DHT22;9698;51.976;7.570;2023-05-23T04:51:01;16.00;99.90
19132;DHT22;9698;51.976;7.570;2023-05-23T04:53:33;16.00;99.90
19132;DHT22;9698;51.976;7.570;2023-05-23T04:56:01;15.90;99.90
19132;DHT22;9698;51.976;7.570;2023-05-23T04:58:29;16.00;99.90
19132;DHT22;9698;51.976;7.570;2023-05-23T05:00:58;15.90;99.90
19132;DHT22;9698;51.976;7.570;2023-05-23T05:03:25;16.00;99.90
19132;DHT22;9698;51.976;7.570;2023-05-23T05:05:53;15.90;99.90
19132;DHT22;9698;51.976;7.570;2023-05-23T05:08:21;16.10;99.90
19132;DHT22;9698;51.976;7.570;2023-05-23T05:10:49;16.10;99.90
19132;DHT22;9698;51.976;7.570;2023-05-23T05:13:17;16.10;99.90
19132;DHT22;9698;51.976;7.570;2023-05-23T05:15:45;16.00;99.90
19132;DHT22;9698;51.976;7.570;2023-05-23T05:18:14;16.20;99.90
19132;DHT22;9698;51.976;7.570;2023-05-23T05:20:42;16.20;99.90
19132;DHT22;9698;51.976;7.570;2023-05-23T05:23:10;16.20;99.90
19132;DHT22;9698;51.976;7.570;2023-05-23T05:25:38;16.00;99.90
19132;DHT22;9698;51.976;7.570;2023-05-23T05:28:07;16.10;99.90
19132;DHT22;9698;51.976;7.570;2023-05-23T05:30:35;15.90;99.90
19132;DHT22;9698;51.976;7.570;2023-05-23T05:33:04;15.90;99.90
19132;DHT22;9698;51.976;7.570;2023-05-23T05:35:32;15.70;99.90
19132;DHT22;9698;51.976;7.570;2023-05-23T05:38:01;15.60;99.90
19132;DHT22;9698;51.976;7.570;2023-05-23T05:40:31;15.60;99.90
19132;DHT22;9698;51.976;7.570;2023-05-23T05:42:59;15.50;99.90
19132;DHT22;9698;51.976;7.570;2023-05-23T05:45:27;15.60;99.90
19132;DHT22;9698;51.976;7.570;2023-05-23T05:47:55;15.60;99.90
19132;DHT22;9698;51.976;7.570;2023-05-23T05:50:23;15.50;99.90
19132;DHT22;9698;51.976;7.570;2023-05-23T05:52:51;15.60;99.90
19132;DHT22;9698;51.976;7.570;2023-05-23T05:58:05;15.20;99.90
19132;DHT22;9698;51.976;7.570;2023-05-23T06:00:33;15.40;99.90
19132;DHT22;9698;51.976;7.570;2023-05-23T06:03:08;15.40;99.90
19132;DHT22;9698;51.976;7.570;2023-05-23T06:05:36;15.40;99.90
19132;DHT22;9698;51.976;7.570;2023-05-23T06:08:05;15.40;99.90
19132;DHT22;9698;51.976;7.570;2023-05-23T06:10:33;15.50;99.90
19132;DHT22;9698;51.976;7.570;2023-05-23T06:13:03;15.30;99.90
19132;DHT22;9698;51.976;7.570;2023-05-23T06:15:31;15.30;99.90
19132;DHT22;9698;51.976;7.570;2023-05-23T06:17:59;15.30;99.90
19132;DHT22;9698;51.976;7.570;2023-05-23T06:20:27;15.40;99.90
19132;DHT22;9698;51.976;7.570;2023-05-23T06:22:55;15.30;99.90
19132;DHT22;9698;51.976;7.570;2023-05-23T06:25:23;15.40;99.90
19132;DHT22;9698;51.976;7.570;2023-05-23T06:27:51;15.40;99.90
19132;DHT22;9698;51.976;7.570;2023-05-23T06:30:18;15.30;99.90
19132;DHT22;9698;51.976;7.570;2023-05-23T06:32:47;15.20;99.90
19132;DHT22;9698;51.976;7.570;2023-05-23T06:35:15;15.10;99.90
19132;DHT22;9698;51.976;7.570;2023-05-23T06:37:43;15.10;99.90
19132;DHT22;9698;51.976;7.570;2023-05-23T06:40:12;15.10;99.90
19132;DHT22;9698;51.976;7.570;2023-05-23T06:42:40;15.00;99.90
19132;DHT22;9698;51.976;7.570;2023-05-23T06:45:10;15.00;99.90
19132;DHT22;9698;51.976;7.570;2023-05-23T06:47:40;14.90;99.90
19132;DHT22;9698;51.976;7.570;2023-05-23T06:52:56;14.80;99.90
19132;DHT22;9698;51.976;7.570;2023-05-23T06:58:11;14.90;99.90
19132;DHT22;9698;51.976;7.570;2023-05-23T07:03:27;14.80;99.90
19132;DHT22;9698;51.976;7.570;2023-05-23T07:05:55;14.80;99.90
19132;DHT22;9698;51.976;7.570;2023-05-23T07:08:23;14.70;99.90
19132;DHT22;9698;51.976;7.570;2023-05-23T07:10:51;14.80;99.90
19132;DHT22;9698;51.976;7.570;2023-05-23T07:13:19;14.70;99.90
19132;DHT22;9698;51.976;7.570;2023-05-23T07:15:47;14.80;99.90
19132;DHT22;9698;51.976;7.570;2023-05-23T07:18:15;15.10;99.90
19132;DHT22;9698;51.976;7.570;2023-05-23T07:20:43;15.30;99.90
19132;DHT22;9698;51.976;7.570;2023-05-23T07:23:10;15.60;99.90
19132;DHT22;9698;51.976;7.570;2023-05-23T07:25:38;15.90;99.90
19132;DHT22;9698;51.976;7.570;2023-05-23T07:28:14;16.00;99.90
19132;DHT22;9698;51.976;7.570;2023-05-23T07:33:31;15.50;99.90
19132;DHT22;9698;51.976;7.570;2023-05-23T07:36:00;15.40;99.90
19132;DHT22;9698;51.976;7.570;2023-05-23T07:41:15;15.00;99.90
19132;DHT22;9698;51.976;7.570;2023-05-23T07:43:43;14.90;99.90
19132;DHT22;9698;51.976;7.570;2023-05-23T07:46:11;14.90;99.90
19132;DHT22;9698;51.976;7.570;2023-05-23T07:48:39;14.90;99.90
19132;DHT22;9698;51.976;7.570;2023-05-23T07:51:07;14.80;99.90
19132;DHT22;9698;51.976;7.570;2023-05-23T07:53:35;14.80;99.90
19132;DHT22;9698;51.976;7.570;2023-05-23T07:56:06;14.70;99.90
19132;DHT22;9698;51.976;7.570;2023-05-23T07:58:34;14.60;99.90
19132;DHT22;9698;51.976;7.570;2023-05-23T08:01:02;14.70;99.90
19132;DHT22;9698;51.976;7.570;2023-05-23T08:03:30;15.30;99.90
19132;DHT22;9698;51.976;7.570;2023-05-23T08:05:58;15.20;99.90
19132;DHT22;9698;51.976;7.570;2023-05-23T08:08:26;16.10;99.90
19132;DHT22;9698;51.976;7.570;2023-05-23T08:10:54;16.00;99.90
19132;DHT22;9698;51.976;7.570;2023-05-23T08:13:22;16.50;99.90
19132;DHT22;9698;51.976;7.570;2023-05-23T08:18:37;16.70;99.90
19132;DHT22;9698;51.976;7.570;2023-05-23T08:23:55;16.40;99.90
19132;DHT22;9698;51.976;7.570;2023-05-23T08:26:23;16.50;99.90
19132;DHT22;9698;51.976;7.570;2023-05-23T08:28:53;16.20;99.90
19132;DHT22;9698;51.976;7.570;2023-05-23T08:31:21;16.10;99.90
19132;DHT22;9698;51.976;7.570;2023-05-23T08:33:50;16.10;99.90
19132;DHT22;9698;51.976;7.570;2023-05-23T08:36:18;16.20;99.90
19132;DHT22;9698;51.976;7.570;2023-05-23T08:38:46;16.20;99.90
19132;DHT22;9698;51.976;7.570;2023-05-23T08:41:19;16.40;99.90
19132;DHT22;9698;51.976;7.570;2023-05-23T08:43:47;16.20;99.90
19132;DHT22;9698;51.976;7.570;2023-05-23T08:46:15;16.40;99.90
19132;DHT22;9698;51.976;7.570;2023-05-23T08:48:48;16.50;99.90
19132;DHT22;9698;51.976;7.570;2023-05-23T08:51:19;16.70;99.90
19132;DHT22;9698;51.976;7.570;2023-05-23T08:53:48;16.70;99.90
19132;DHT22;9698;51.976;7.570;2023-05-23T08:56:20;16.60;99.90
19132;DHT22;9698;51.976;7.570;2023-05-23T08:58:48;16.40;99.90
19132;DHT22;9698;51.976;7.570;2023-05-23T09:01:19;16.60;99.90
19132;DHT22;9698;51.976;7.570;2023-05-23T09:03:49;16.40;99.90
19132;DHT22;9698;51.976;7.570;2023-05-23T09:06:20;16.50;99.90
19132;DHT22;9698;51.976;7.570;2023-05-23T09:08:50;16.40;99.90
19132;DHT22;9698;51.976;7.570;2023-05-23T09:11:18;16.40;99.90
19132;DHT22;9698;51.976;7.570;2023-05-23T09:13:48;16.70;99.90
19132;DHT22;9698;51.976;7.570;2023-05-23T09:16:16;16.50;99.90
19132;DHT22;9698;51.976;7.570;2023-05-23T09:18:45;16.20;99.90
19132;DHT22;9698;51.976;7.570;2023-05-23T09:21:13;16.30;99.90
19132;DHT22;9698;51.976;7.570;2023-05-23T09:23:42;16.30;99.90
19132;DHT22;9698;51.976;7.570;2023-05-23T09:26:11;16.20;99.90
19132;DHT22;9698;51.976;7.570;2023-05-23T09:28:42;16.20;99.90
19132;DHT22;9698;51.976;7.570;2023-05-23T09:31:11;16.40;99.90
19132;DHT22;9698;51.976;7.570;2023-05-23T09:33:42;16.30;99.90
19132;DHT22;9698;51.976;7.570;2023-05-23T09:36:10;16.00;99.90
19132;DHT22;9698;51.976;7.570;2023-05-23T09:38:38;16.00;99.90
19132;DHT22;9698;51.976;7.570;2023-05-23T09:41:07;16.00;99.90
19132;DHT22;9698;51.976;7.570;2023-05-23T09:43:38;16.00;99.90
19132;DHT22;9698;51.976;7.570;2023-05-23T09:46:10;16.10;99.90
19132;DHT22;9698;51.976;7.570;2023-05-23T09:48:39;16.40;99.90
19132;DHT22;9698;51.976;7.570;2023-05-23T09:51:09;16.20;99.90
19132;DHT22;9698;51.976;7.570;2023-05-23T09:56:24;16.20;99.90
19132;DHT22;9698;51.976;7.570;2023-05-23T09:58:54;16.20;99.90
19132;DHT22;9698;51.976;7.570;2023-05-23T10:01:24;16.10;99.90
19132;DHT22;9698;51.976;7.570;2023-05-23T10:03:53;16.30;99.90
19132;DHT22;9698;51.976;7.570;2023-05-23T10:06:31;16.30;99.90
19132;DHT22;9698;51.976;7.570;2023-05-23T10:09:02;16.40;99.90
19132;DHT22;9698;51.976;7.570;2023-05-23T10:14:46;16.90;99.90
19132;DHT22;9698;51.976;7.570;2023-05-23T10:17:19;17.20;99.90
19132;DHT22;9698;51.976;7.570;2023-05-23T10:19:55;17.40;58.30
19132;DHT22;9698;51.976;7.570;2023-05-23T10:22:25;17.40;99.90
19132;DHT22;9698;51.976;7.570;2023-05-23T10:24:53;17.60;85.10
19132;DHT22;9698;51.976;7.570;2023-05-23T10:27:22;17.30;36.60
19132;DHT22;9698;51.976;7.570;2023-05-23T10:29:50;17.20;1.00
19132;DHT22;9698;51.976;7.570;2023-05-23T10:32:19;17.10;1.00
19132;DHT22;9698;51.976;7.570;2023-05-23T10:34:55;16.90;5.40
19132;DHT22;9698;51.976;7.570;2023-05-23T10:37:31;16.80;89.20
19132;DHT22;9698;51.976;7.570;2023-05-23T10:40:04;16.50;1.00
19132;DHT22;9698;51.976;7.570;2023-05-23T10:42:43;16.60;92.90
19132;DHT22;9698;51.976;7.570;2023-05-23T10:45:19;16.80;99.90
19132;DHT22;9698;51.976;7.570;2023-05-23T10:47:48;16.90;69.70
19132;DHT22;9698;51.976;7.570;2023-05-23T10:50:30;16.90;1.00
19132;DHT22;9698;51.976;7.570;2023-05-23T10:53:00;17.00;99.90
19132;DHT22;9698;51.976;7.570;2023-05-23T10:55:31;17.10;34.30
19132;DHT22;9698;51.976;7.570;2023-05-23T10:58:15;16.90;1.00
19132;DHT22;9698;51.976;7.570;2023-05-23T11:00:53;16.90;21.50
19132;DHT22;9698;51.976;7.570;2023-05-23T11:03:35;17.00;1.00
19132;DHT22;9698;51.976;7.570;2023-05-23T11:06:05;17.20;1.00
19132;DHT22;9698;51.976;7.570;2023-05-23T11:11:25;17.10;1.00
19132;DHT22;9698;51.976;7.570;2023-05-23T11:14:29;17.20;35.10
19132;DHT22;9698;51.976;7.570;2023-05-23T11:16:58;17.20;1.00
19132;DHT22;9698;51.976;7.570;2023-05-23T11:19:27;17.00;1.00
19132;DHT22;9698;51.976;7.570;2023-05-23T11:21:58;17.10;1.00
19132;DHT22;9698;51.976;7.570;2023-05-23T11:27:35;17.20;1.00
19132;DHT22;9698;51.976;7.570;2023-05-23T11:30:07;17.30;1.00
19132;DHT22;9698;51.976;7.570;2023-05-23T11:32:36;17.30;1.00
19132;DHT22;9698;51.976;7.570;2023-05-23T11:35:06;17.40;1.00
19132;DHT22;9698;51.976;7.570;2023-05-23T11:37:35;17.60;1.00
19132;DHT22;9698;51.976;7.570;2023-05-23T11:40:27;17.80;1.00
19132;DHT22;9698;51.976;7.570;2023-05-23T11:42:55;17.90;1.00
19132;DHT22;9698;51.976;7.570;2023-05-23T11:48:09;18.10;1.00
19132;DHT22;9698;51.976;7.570;2023-05-23T11:50:48;17.90;1.00
19132;DHT22;9698;51.976;7.570;2023-05-23T11:53:16;18.00;1.00
19132;DHT22;9698;51.976;7.570;2023-05-23T11:58:40;18.00;1.00
19132;DHT22;9698;51.976;7.570;2023-05-23T12:01:10;17.90;1.00
19132;DHT22;9698;51.976;7.570;2023-05-23T12:03:46;17.90;1.00
19132;DHT22;9698;51.976;7.570;2023-05-23T12:06:15;17.50;1.00
19132;DHT22;9698;51.976;7.570;2023-05-23T12:08:43;17.40;99.90
19132;DHT22;9698;51.976;7.570;2023-05-23T12:11:11;17.10;1.00
19132;DHT22;9698;51.976;7.570;2023-05-23T12:13:41;17.00;1.00
19132;DHT22;9698;51.976;7.570;2023-05-23T12:16:09;17.00;99.90
19132;DHT22;9698;51.976;7.570;2023-05-23T12:18:41;16.90;99.90
19132;DHT22;9698;51.976;7.570;2023-05-23T12:21:09;16.80;99.90
19132;DHT22;9698;51.976;7.570;2023-05-23T12:23:39;16.80;99.90
19132;DHT22;9698;51.976;7.570;2023-05-23T12:26:08;16.70;99.90
19132;DHT22;9698;51.976;7.570;2023-05-23T12:28:38;16.70;1.00
19132;DHT22;9698;51.976;7.570;2023-05-23T12:31:11;16.80;99.90
19132;DHT22;9698;51.976;7.570;2023-05-23T12:33:39;16.70;99.90
19132;DHT22;9698;51.976;7.570;2023-05-23T12:36:10;16.90;99.90
19132;DHT22;9698;51.976;7.570;2023-05-23T12:38:38;17.00;99.90
19132;DHT22;9698;51.976;7.570;2023-05-23T12:41:14;17.10;99.90
19132;DHT22;9698;51.976;7.570;2023-05-23T12:43:49;17.20;99.90
19132;DHT22;9698;51.976;7.570;2023-05-23T12:46:18;17.30;99.90
19132;DHT22;9698;51.976;7.570;2023-05-23T12:48:46;17.30;99.90
19132;DHT22;9698;51.976;7.570;2023-05-23T12:51:14;17.10;99.90
19132;DHT22;9698;51.976;7.570;2023-05-23T12:53:42;17.20;99.90
19132;DHT22;9698;51.976;7.570;2023-05-23T12:56:10;17.40;99.90
19132;DHT22;9698;51.976;7.570;2023-05-23T12:58:38;17.40;80.40
19132;DHT22;9698;51.976;7.570;2023-05-23T13:01:06;17.40;1.00
19132;DHT22;9698;51.976;7.570;2023-05-23T13:03:34;17.40;1.00
19132;DHT22;9698;51.976;7.570;2023-05-23T13:06:02;17.40;1.00
19132;DHT22;9698;51.976;7.570;2023-05-23T13:08:30;17.40;7.30
19132;DHT22;9698;51.976;7.570;2023-05-23T13:10:58;17.40;61.60
19132;DHT22;9698;51.976;7.570;2023-05-23T13:13:27;17.30;16.90
19132;DHT22;9698;51.976;7.570;2023-05-23T13:15:56;17.10;1.00
19132;DHT22;9698;51.976;7.570;2023-05-23T13:18:24;17.20;1.00
19132;DHT22;9698;51.976;7.570;2023-05-23T13:20:52;17.20;1.00
19132;DHT22;9698;51.976;7.570;2023-05-23T13:26:09;17.20;1.00
19132;DHT22;9698;51.976;7.570;2023-05-23T13:28:37;17.30;1.00
19132;DHT22;9698;51.976;7.570;2023-05-23T13:31:05;17.30;1.00
19132;DHT22;9698;51.976;7.570;2023-05-23T13:33:33;17.30;1.00
19132;DHT22;9698;51.976;7.570;2023-05-23T13:36:01;17.20;1.00
19132;DHT22;9698;51.976;7.570;2023-05-23T13:38:29;17.30;1.00
19132;DHT22;9698;51.976;7.570;2023-05-23T13:40:58;17.30;1.00
19132;DHT22;9698;51.976;7.570;2023-05-23T13:43:26;17.60;1.00
19132;DHT22;9698;51.976;7.570;2023-05-23T13:45:54;17.60;1.00
19132;DHT22;9698;51.976;7.570;2023-05-23T13:48:22;17.80;1.00
19132;DHT22;9698;51.976;7.570;2023-05-23T13:50:50;17.80;1.00
19132;DHT22;9698;51.976;7.570;2023-05-23T13:53:18;17.70;1.00
19132;DHT22;9698;51.976;7.570;2023-05-23T13:55:47;18.00;1.00
19132;DHT22;9698;51.976;7.570;2023-05-23T13:58:15;17.70;1.00
19132;DHT22;9698;51.976;7.570;2023-05-23T14:00:43;17.60;1.00
19132;DHT22;9698;51.976;7.570;2023-05-23T14:03:11;17.60;1.00
19132;DHT22;9698;51.976;7.570;2023-05-23T14:05:39;17.50;1.00
19132;DHT22;9698;51.976;7.570;2023-05-23T14:08:07;17.40;1.00
19132;DHT22;9698;51.976;7.570;2023-05-23T14:10:35;17.30;1.00
19132;DHT22;9698;51.976;7.570;2023-05-23T14:13:04;17.30;16.10
19132;DHT22;9698;51.976;7.570;2023-05-23T14:15:33;18.70;99.90
19132;DHT22;9698;51.976;7.570;2023-05-23T14:18:01;17.50;99.90
19132;DHT22;9698;51.976;7.570;2023-05-23T14:20:29;17.50;1.00
19132;DHT22;9698;51.976;7.570;2023-05-23T14:22:58;17.60;1.00
19132;DHT22;9698;51.976;7.570;2023-05-23T14:25:26;17.70;99.90
19132;DHT22;9698;51.976;7.570;2023-05-23T14:27:54;17.90;1.00
19132;DHT22;9698;51.976;7.570;2023-05-23T14:30:22;18.00;99.90
19132;DHT22;9698;51.976;7.570;2023-05-23T14:32:49;18.10;1.00
19132;DHT22;9698;51.976;7.570;2023-05-23T14:35:17;18.20;99.90
19132;DHT22;9698;51.976;7.570;2023-05-23T14:37:45;18.10;99.90
19132;DHT22;9698;51.976;7.570;2023-05-23T14:40:14;17.90;99.90
19132;DHT22;9698;51.976;7.570;2023-05-23T14:42:42;18.10;94.10
19132;DHT22;9698;51.976;7.570;2023-05-23T14:45:11;18.10;1.00
19132;DHT22;9698;51.976;7.570;2023-05-23T14:47:40;18.00;1.00
19132;DHT22;9698;51.976;7.570;2023-05-23T14:50:10;17.80;21.60
19132;DHT22;9698;51.976;7.570;2023-05-23T14:52:39;17.90;69.30
19132;DHT22;9698;51.976;7.570;2023-05-23T14:55:09;17.90;5.80
19132;DHT22;9698;51.976;7.570;2023-05-23T14:57:37;17.90;1.00
19132;DHT22;9698;51.976;7.570;2023-05-23T15:00:08;18.00;1.00
19132;DHT22;9698;51.976;7.570;2023-05-23T15:02:36;18.00;1.00
19132;DHT22;9698;51.976;7.570;2023-05-23T15:05:06;18.20;1.00
19132;DHT22;9698;51.976;7.570;2023-05-23T15:07:35;18.20;1.00
19132;DHT22;9698;51.976;7.570;2023-05-23T15:10:07;18.30;1.00
19132;DHT22;9698;51.976;7.570;2023-05-23T15:12:34;18.20;1.00
19132;DHT22;9698;51.976;7.570;2023-05-23T15:15:04;18.30;1.00
19132;DHT22;9698;51.976;7.570;2023-05-23T15:17:32;18.40;1.00
19132;DHT22;9698;51.976;7.570;2023-05-23T15:20:01;18.40;1.00
19132;DHT22;9698;51.976;7.570;2023-05-23T15:22:33;18.50;1.00
19132;DHT22;9698;51.976;7.570;2023-05-23T15:25:08;18.70;1.00
19132;DHT22;9698;51.976;7.570;2023-05-23T15:27:36;18.50;1.00
19132;DHT22;9698;51.976;7.570;2023-05-23T15:30:07;18.50;1.00
19132;DHT22;9698;51.976;7.570;2023-05-23T15:32:35;18.40;1.00
19132;DHT22;9698;51.976;7.570;2023-05-23T15:35:04;18.30;1.00
19132;DHT22;9698;51.976;7.570;2023-05-23T15:37:33;18.20;1.00
19132;DHT22;9698;51.976;7.570;2023-05-23T15:40:00;18.30;1.00
19132;DHT22;9698;51.976;7.570;2023-05-23T15:42:29;18.30;1.00
19132;DHT22;9698;51.976;7.570;2023-05-23T15:44:58;18.40;1.00
19132;DHT22;9698;51.976;7.570;2023-05-23T15:47:26;18.50;1.00
19132;DHT22;9698;51.976;7.570;2023-05-23T15:49:54;18.60;1.00
19132;DHT22;9698;51.976;7.570;2023-05-23T15:52:22;19.90;1.00
19132;DHT22;9698;51.976;7.570;2023-05-23T15:54:50;18.80;1.00
19132;DHT22;9698;51.976;7.570;2023-05-23T15:57:18;18.80;99.90
19132;DHT22;9698;51.976;7.570;2023-05-23T15:59:45;19.10;99.90
19132;DHT22;9698;51.976;7.570;2023-05-23T16:02:13;18.90;99.90
19132;DHT22;9698;51.976;7.570;2023-05-23T16:04:42;18.80;1.00
19132;DHT22;9698;51.976;7.570;2023-05-23T16:07:10;19.10;1.00
19132;DHT22;9698;51.976;7.570;2023-05-23T16:09:38;19.20;99.90
19132;DHT22;9698;51.976;7.570;2023-05-23T16:12:08;19.30;99.90
19132;DHT22;9698;51.976;7.570;2023-05-23T16:14:35;19.30;99.90
19132;DHT22;9698;51.976;7.570;2023-05-23T16:19:53;19.30;1.00
19132;DHT22;9698;51.976;7.570;2023-05-23T16:22:21;19.20;1.00
19132;DHT22;9698;51.976;7.570;2023-05-23T16:24:49;19.10;99.90
19132;DHT22;9698;51.976;7.570;2023-05-23T16:27:18;18.90;1.00
19132;DHT22;9698;51.976;7.570;2023-05-23T16:29:46;18.70;1.00
19132;DHT22;9698;51.976;7.570;2023-05-23T16:32:14;18.70;1.00
19132;DHT22;9698;51.976;7.570;2023-05-23T16:34:43;18.90;1.00
19132;DHT22;9698;51.976;7.570;2023-05-23T16:37:17;18.90;1.00
19132;DHT22;9698;51.976;7.570;2023-05-23T16:39:45;18.90;99.90
19132;DHT22;9698;51.976;7.570;2023-05-23T16:42:13;18.90;99.90
19132;DHT22;9698;51.976;7.570;2023-05-23T16:44:41;19.00;99.90
19132;DHT22;9698;51.976;7.570;2023-05-23T16:47:10;19.10;99.90
19132;DHT22;9698;51.976;7.570;2023-05-23T16:49:38;19.10;99.90
19132;DHT22;9698;51.976;7.570;2023-05-23T16:52:05;19.30;99.90
19132;DHT22;9698;51.976;7.570;2023-05-23T16:54:33;19.30;99.90
19132;DHT22;9698;51.976;7.570;2023-05-23T16:57:03;19.30;99.90
19132;DHT22;9698;51.976;7.570;2023-05-23T16:59:31;19.10;99.90
19132;DHT22;9698;51.976;7.570;2023-05-23T17:02:00;19.00;99.90
19132;DHT22;9698;51.976;7.570;2023-05-23T17:04:28;19.00;99.90
19132;DHT22;9698;51.976;7.570;2023-05-23T17:06:55;19.10;99.90
19132;DHT22;9698;51.976;7.570;2023-05-23T17:09:23;18.90;99.90